sensor_id;sensor_type;location;lat;lon;timestamp;temperature;humidity
19363;DHT22;9817;50.80926400;5.16316200;2023-07-31T00:00:07;18.20;99.90
19363;DHT22;9817;50.80926400;5.16316200;2023-07-31T00:02:34;18.10;99.90
19363;DHT22;9817;50.80926400;5.16316200;2023-07-31T00:05:00;18.20;99.90
19363;DHT22;9817;50.80926400;5.16316200;2023-07-31T00:07:26;18.20;99.90
19363;DHT22;9817;50.80926400;5.16316200;2023-07-31T00:09:52;18.30;99.90
19363;DHT22;9817;50.80926400;5.16316200;2023-07-31T00:12:19;18.20;99.90
19363;DHT22;9817;50.80926400;5.16316200;2023-07-31T00:14:45;18.30;99.90
19363;DHT22;9817;50.80926400;5.16316200;2023-07-31T00:17:11;18.20;99.90
19363;DHT22;9817;50.80926400;5.16316200;2023-07-31T00:19:37;18.20;99.90
19363;DHT22;9817;50.80926400;5.16316200;2023-07-31T00:22:02;18.10;99.90
19363;DHT22;9817;50.80926400;5.16316200;2023-07-31T00:24:28;18.10;99.90
19363;DHT22;9817;50.80926400;5.16316200;2023-07-31T00:26:54;18.20;99.90
19363;DHT22;9817;50.80926400;5.16316200;2023-07-31T00:29:19;18.20;99.90
19363;DHT22;9817;50.80926400;5.16316200;2023-07-31T00:31:45;18.20;99.90
19363;DHT22;9817;50.80926400;5.16316200;2023-07-31T00:34:10;18.40;99.90
19363;DHT22;9817;50.80926400;5.16316200;2023-07-31T00:36:36;18.40;99.90
19363;DHT22;9817;50.80926400;5.16316200;2023-07-31T00:39:02;18.40;99.90
19363;DHT22;9817;50.80926400;5.16316200;2023-07-31T00:41:27;18.50;99.90
19363;DHT22;9817;50.80926400;5.16316200;2023-07-31T00:43:53;18.50;99.90
19363;DHT22;9817;50.80926400;5.16316200;2023-07-31T00:46:19;18.50;99.90
19363;DHT22;9817;50.80926400;5.16316200;2023-07-31T00:48:45;18.60;99.90
19363;DHT22;9817;50.80926400;5.16316200;2023-07-31T00:51:11;18.60;99.90
19363;DHT22;9817;50.80926400;5.16316200;2023-07-31T00:53:37;18.70;99.90
19363;DHT22;9817;50.80926400;5.16316200;2023-07-31T00:56:03;18.80;99.90
19363;DHT22;9817;50.80926400;5.16316200;2023-07-31T00:58:29;18.80;99.90
19363;DHT22;9817;50.80926400;5.16316200;2023-07-31T01:00:55;18.80;99.90
19363;DHT22;9817;50.80926400;5.16316200;2023-07-31T01:03:21;18.80;99.90
19363;DHT22;9817;50.80926400;5.16316200;2023-07-31T01:09:05;18.70;99.90
19363;DHT22;9817;50.80926400;5.16316200;2023-07-31T01:11:38;18.70;99.90
19363;DHT22;9817;50.80926400;5.16316200;2023-07-31T01:14:07;18.60;99.90
19363;DHT22;9817;50.80926400;5.16316200;2023-07-31T01:16:32;18.70;99.90
19363;DHT22;9817;50.80926400;5.16316200;2023-07-31T01:18:58;18.60;99.90
19363;DHT22;9817;50.80926400;5.16316200;2023-07-31T01:24:23;18.60;99.90
19363;DHT22;9817;50.80926400;5.16316200;2023-07-31T01:26:58;18.70;99.90
19363;DHT22;9817;50.80926400;5.16316200;2023-07-31T01:29:45;18.70;99.90
19363;DHT22;9817;50.80926400;5.16316200;2023-07-31T01:32:11;18.60;99.90
19363;DHT22;9817;50.80926400;5.16316200;2023-07-31T01:34:37;18.70;99.90
19363;DHT22;9817;50.80926400;5.16316200;2023-07-31T01:37:03;18.70;99.90
19363;DHT22;9817;50.80926400;5.16316200;2023-07-31T01:39:29;18.80;99.90
19363;DHT22;9817;50.80926400;5.16316200;2023-07-31T01:41:54;18.80;99.90
19363;DHT22;9817;50.80926400;5.16316200;2023-07-31T01:44:20;18.60;99.90
19363;DHT22;9817;50.80926400;5.16316200;2023-07-31T01:46:46;18.70;99.90
19363;DHT22;9817;50.80926400;5.16316200;2023-07-31T01:49:11;18.70;99.90
19363;DHT22;9817;50.80926400;5.16316200;2023-07-31T01:51:37;18.80;99.90
19363;DHT22;9817;50.80926400;5.16316200;2023-07-31T01:54:02;18.70;99.90
19363;DHT22;9817;50.80926400;5.16316200;2023-07-31T01:56:28;18.70;99.90
19363;DHT22;9817;50.80926400;5.16316200;2023-07-31T01:58:54;18.70;99.90
19363;DHT22;9817;50.80926400;5.16316200;2023-07-31T02:01:19;18.80;99.90
19363;DHT22;9817;50.80926400;5.16316200;2023-07-31T02:03:45;18.80;99.90
19363;DHT22;9817;50.80926400;5.16316200;2023-07-31T02:06:11;18.70;99.90
19363;DHT22;9817;50.80926400;5.16316200;2023-07-31T02:08:37;18.80;99.90
19363;DHT22;9817;50.80926400;5.16316200;2023-07-31T02:11:03;18.80;99.90
19363;DHT22;9817;50.80926400;5.16316200;2023-07-31T02:13:29;18.90;99.90
19363;DHT22;9817;50.80926400;5.16316200;2023-07-31T02:15:54;18.80;99.90
19363;DHT22;9817;50.80926400;5.16316200;2023-07-31T02:18:20;18.70;99.90
19363;DHT22;9817;50.80926400;5.16316200;2023-07-31T02:20:50;18.70;99.90
19363;DHT22;9817;50.80926400;5.16316200;2023-07-31T02:23:20;18.80;99.90
19363;DHT22;9817;50.80926400;5.16316200;2023-07-31T02:25:46;18.80;99.90
19363;DHT22;9817;50.80926400;5.16316200;2023-07-31T02:28:12;18.80;99.90
19363;DHT22;9817;50.80926400;5.16316200;2023-07-31T02:30:38;18.80;99.90
19363;DHT22;9817;50.80926400;5.16316200;2023-07-31T02:33:04;18.80;99.90
19363;DHT22;9817;50.80926400;5.16316200;2023-07-31T02:35:30;18.80;99.90
19363;DHT22;9817;50.80926400;5.16316200;2023-07-31T02:37:56;18.80;99.90
19363;DHT22;9817;50.80926400;5.16316200;2023-07-31T02:40:22;18.90;99.90
19363;DHT22;9817;50.80926400;5.16316200;2023-07-31T02:42:47;18.80;99.90
19363;DHT22;9817;50.80926400;5.16316200;2023-07-31T02:45:13;18.90;99.90
19363;DHT22;9817;50.80926400;5.16316200;2023-07-31T02:47:39;18.90;99.90
19363;DHT22;9817;50.80926400;5.16316200;2023-07-31T02:50:04;18.80;99.90
19363;DHT22;9817;50.80926400;5.16316200;2023-07-31T02:52:30;18.80;99.90
19363;DHT22;9817;50.80926400;5.16316200;2023-07-31T02:54:56;18.80;99.90
19363;DHT22;9817;50.80926400;5.16316200;2023-07-31T02:57:22;18.80;99.90
19363;DHT22;9817;50.80926400;5.16316200;2023-07-31T02:59:47;18.80;99.90
19363;DHT22;9817;50.80926400;5.16316200;2023-07-31T03:02:13;18.80;99.90
19363;DHT22;9817;50.80926400;5.16316200;2023-07-31T03:04:39;18.80;99.90
19363;DHT22;9817;50.80926400;5.16316200;2023-07-31T03:07:05;18.80;99.90
19363;DHT22;9817;50.80926400;5.16316200;2023-07-31T03:09:31;18.80;99.90
19363;DHT22;9817;50.80926400;5.16316200;2023-07-31T03:11:56;18.80;99.90
19363;DHT22;9817;50.80926400;5.16316200;2023-07-31T03:14:22;18.70;99.90
19363;DHT22;9817;50.80926400;5.16316200;2023-07-31T03:16:48;18.80;99.90
19363;DHT22;9817;50.80926400;5.16316200;2023-07-31T03:19:14;18.90;99.90
19363;DHT22;9817;50.80926400;5.16316200;2023-07-31T03:21:40;18.80;99.90
19363;DHT22;9817;50.80926400;5.16316200;2023-07-31T03:24:06;18.70;99.90
19363;DHT22;9817;50.80926400;5.16316200;2023-07-31T03:26:32;18.80;99.90
19363;DHT22;9817;50.80926400;5.16316200;2023-07-31T03:28:58;18.80;99.90
19363;DHT22;9817;50.80926400;5.16316200;2023-07-31T03:31:23;18.80;99.90
19363;DHT22;9817;50.80926400;5.16316200;2023-07-31T03:33:49;18.70;99.90
19363;DHT22;9817;50.80926400;5.16316200;2023-07-31T03:36:15;18.60;99.90
19363;DHT22;9817;50.80926400;5.16316200;2023-07-31T03:38:40;18.70;99.90
19363;DHT22;9817;50.80926400;5.16316200;2023-07-31T03:41:06;18.70;99.90
19363;DHT22;9817;50.80926400;5.16316200;2023-07-31T03:43:32;18.80;99.90
19363;DHT22;9817;50.80926400;5.16316200;2023-07-31T03:46:00;18.70;99.90
19363;DHT22;9817;50.80926400;5.16316200;2023-07-31T03:48:25;18.50;99.90
19363;DHT22;9817;50.80926400;5.16316200;2023-07-31T03:50:51;18.60;99.90
19363;DHT22;9817;50.80926400;5.16316200;2023-07-31T03:53:17;18.50;99.90
19363;DHT22;9817;50.80926400;5.16316200;2023-07-31T03:55:43;18.60;99.90
19363;DHT22;9817;50.80926400;5.16316200;2023-07-31T03:58:08;18.70;99.90
19363;DHT22;9817;50.80926400;5.16316200;2023-07-31T04:00:34;18.80;99.90
19363;DHT22;9817;50.80926400;5.16316200;2023-07-31T04:03:00;18.60;99.90
19363;DHT22;9817;50.80926400;5.16316200;2023-07-31T04:05:26;18.50;99.90
19363;DHT22;9817;50.80926400;5.16316200;2023-07-31T04:07:51;18.70;99.90
19363;DHT22;9817;50.80926400;5.16316200;2023-07-31T04:10:17;18.70;99.90
19363;DHT22;9817;50.80926400;5.16316200;2023-07-31T04:12:43;18.70;99.90
19363;DHT22;9817;50.80926400;5.16316200;2023-07-31T04:15:08;18.60;99.90
19363;DHT22;9817;50.80926400;5.16316200;2023-07-31T04:17:34;18.60;99.90
19363;DHT22;9817;50.80926400;5.16316200;2023-07-31T04:20:00;18.80;99.90
19363;DHT22;9817;50.80926400;5.16316200;2023-07-31T04:22:26;18.60;99.90
19363;DHT22;9817;50.80926400;5.16316200;2023-07-31T04:24:51;18.80;99.90
19363;DHT22;9817;50.80926400;5.16316200;2023-07-31T04:27:17;18.90;99.90
19363;DHT22;9817;50.80926400;5.16316200;2023-07-31T04:29:43;18.80;99.90
19363;DHT22;9817;50.80926400;5.16316200;2023-07-31T04:32:11;18.70;99.90
19363;DHT22;9817;50.80926400;5.16316200;2023-07-31T04:34:36;18.60;99.90
19363;DHT22;9817;50.80926400;5.16316200;2023-07-31T04:37:02;18.50;99.90
19363;DHT22;9817;50.80926400;5.16316200;2023-07-31T04:39:28;18.50;99.90
19363;DHT22;9817;50.80926400;5.16316200;2023-07-31T04:41:54;18.40;99.90
19363;DHT22;9817;50.80926400;5.16316200;2023-07-31T04:44:20;18.40;99.90
19363;DHT22;9817;50.80926400;5.16316200;2023-07-31T04:46:45;18.50;99.90
19363;DHT22;9817;50.80926400;5.16316200;2023-07-31T04:49:11;18.50;99.90
19363;DHT22;9817;50.80926400;5.16316200;2023-07-31T04:51:37;18.50;99.90
19363;DHT22;9817;50.80926400;5.16316200;2023-07-31T04:54:03;18.50;99.90
19363;DHT22;9817;50.80926400;5.16316200;2023-07-31T04:56:28;18.50;99.90
19363;DHT22;9817;50.80926400;5.16316200;2023-07-31T04:58:54;18.60;99.90
19363;DHT22;9817;50.80926400;5.16316200;2023-07-31T05:01:20;18.50;99.90
19363;DHT22;9817;50.80926400;5.16316200;2023-07-31T05:03:46;18.50;99.90
19363;DHT22;9817;50.80926400;5.16316200;2023-07-31T05:06:11;18.50;99.90
19363;DHT22;9817;50.80926400;5.16316200;2023-07-31T05:08:38;18.60;99.90
19363;DHT22;9817;50.80926400;5.16316200;2023-07-31T05:11:04;18.70;99.90
19363;DHT22;9817;50.80926400;5.16316200;2023-07-31T05:13:30;18.60;99.90
19363;DHT22;9817;50.80926400;5.16316200;2023-07-31T05:15:56;18.60;99.90
19363;DHT22;9817;50.80926400;5.16316200;2023-07-31T05:18:21;18.60;99.90
19363;DHT22;9817;50.80926400;5.16316200;2023-07-31T05:20:47;18.60;99.90
19363;DHT22;9817;50.80926400;5.16316200;2023-07-31T05:23:13;18.70;99.90
19363;DHT22;9817;50.80926400;5.16316200;2023-07-31T05:25:38;18.80;99.90
19363;DHT22;9817;50.80926400;5.16316200;2023-07-31T05:28:04;18.80;99.90
19363;DHT22;9817;50.80926400;5.16316200;2023-07-31T05:30:30;18.80;99.90
19363;DHT22;9817;50.80926400;5.16316200;2023-07-31T05:32:56;18.80;99.90
19363;DHT22;9817;50.80926400;5.16316200;2023-07-31T05:35:22;18.80;99.90
19363;DHT22;9817;50.80926400;5.16316200;2023-07-31T05:37:47;18.70;99.90
19363;DHT22;9817;50.80926400;5.16316200;2023-07-31T05:40:14;18.60;99.90
19363;DHT22;9817;50.80926400;5.16316200;2023-07-31T05:42:40;18.60;99.90
19363;DHT22;9817;50.80926400;5.16316200;2023-07-31T05:45:06;18.60;99.90
19363;DHT22;9817;50.80926400;5.16316200;2023-07-31T05:47:32;18.70;99.90
19363;DHT22;9817;50.80926400;5.16316200;2023-07-31T05:49:58;18.60;99.90
19363;DHT22;9817;50.80926400;5.16316200;2023-07-31T05:52:23;18.60;99.90
19363;DHT22;9817;50.80926400;5.16316200;2023-07-31T05:54:49;18.60;99.90
19363;DHT22;9817;50.80926400;5.16316200;2023-07-31T05:57:15;18.60;99.90
19363;DHT22;9817;50.80926400;5.16316200;2023-07-31T05:59:41;18.50;99.90
19363;DHT22;9817;50.80926400;5.16316200;2023-07-31T06:02:07;18.40;99.90
19363;DHT22;9817;50.80926400;5.16316200;2023-07-31T06:04:33;18.50;99.90
19363;DHT22;9817;50.80926400;5.16316200;2023-07-31T06:06:58;18.50;99.90
19363;DHT22;9817;50.80926400;5.16316200;2023-07-31T06:09:24;18.40;99.90
19363;DHT22;9817;50.80926400;5.16316200;2023-07-31T06:11:51;18.40;99.90
19363;DHT22;9817;50.80926400;5.16316200;2023-07-31T06:14:17;18.20;99.90
19363;DHT22;9817;50.80926400;5.16316200;2023-07-31T06:16:43;18.20;99.90
19363;DHT22;9817;50.80926400;5.16316200;2023-07-31T06:19:09;18.20;99.90
19363;DHT22;9817;50.80926400;5.16316200;2023-07-31T06:21:35;18.30;99.90
19363;DHT22;9817;50.80926400;5.16316200;2023-07-31T06:24:03;18.40;99.90
19363;DHT22;9817;50.80926400;5.16316200;2023-07-31T06:26:29;18.50;99.90
19363;DHT22;9817;50.80926400;5.16316200;2023-07-31T06:28:54;18.40;99.90
19363;DHT22;9817;50.80926400;5.16316200;2023-07-31T06:31:20;18.40;99.90
19363;DHT22;9817;50.80926400;5.16316200;2023-07-31T06:33:49;18.30;99.90
19363;DHT22;9817;50.80926400;5.16316200;2023-07-31T06:36:14;18.30;99.90
19363;DHT22;9817;50.80926400;5.16316200;2023-07-31T06:38:40;18.40;99.90
19363;DHT22;9817;50.80926400;5.16316200;2023-07-31T06:41:06;18.30;99.90
19363;DHT22;9817;50.80926400;5.16316200;2023-07-31T06:43:31;18.30;99.90
19363;DHT22;9817;50.80926400;5.16316200;2023-07-31T06:45:57;18.30;99.90
19363;DHT22;9817;50.80926400;5.16316200;2023-07-31T06:48:23;18.30;99.90
19363;DHT22;9817;50.80926400;5.16316200;2023-07-31T06:50:48;18.20;99.90
19363;DHT22;9817;50.80926400;5.16316200;2023-07-31T06:53:14;18.30;99.90
19363;DHT22;9817;50.80926400;5.16316200;2023-07-31T06:55:40;18.20;99.90
19363;DHT22;9817;50.80926400;5.16316200;2023-07-31T06:58:05;18.30;99.90
19363;DHT22;9817;50.80926400;5.16316200;2023-07-31T07:00:31;18.30;99.90
19363;DHT22;9817;50.80926400;5.16316200;2023-07-31T07:02:57;18.30;99.90
19363;DHT22;9817;50.80926400;5.16316200;2023-07-31T07:05:23;18.50;99.90
19363;DHT22;9817;50.80926400;5.16316200;2023-07-31T07:07:50;18.50;99.90
19363;DHT22;9817;50.80926400;5.16316200;2023-07-31T07:10:17;18.60;99.90
19363;DHT22;9817;50.80926400;5.16316200;2023-07-31T07:12:42;18.50;99.90
19363;DHT22;9817;50.80926400;5.16316200;2023-07-31T07:15:08;18.60;99.90
19363;DHT22;9817;50.80926400;5.16316200;2023-07-31T07:17:34;18.70;99.90
19363;DHT22;9817;50.80926400;5.16316200;2023-07-31T07:20:00;18.60;99.90
19363;DHT22;9817;50.80926400;5.16316200;2023-07-31T07:22:26;18.80;99.90
19363;DHT22;9817;50.80926400;5.16316200;2023-07-31T07:24:53;19.00;99.90
19363;DHT22;9817;50.80926400;5.16316200;2023-07-31T07:27:18;19.20;99.90
19363;DHT22;9817;50.80926400;5.16316200;2023-07-31T07:29:45;19.30;99.90
19363;DHT22;9817;50.80926400;5.16316200;2023-07-31T07:32:11;19.10;99.90
19363;DHT22;9817;50.80926400;5.16316200;2023-07-31T07:34:37;19.20;99.90
19363;DHT22;9817;50.80926400;5.16316200;2023-07-31T07:37:03;19.10;99.90
19363;DHT22;9817;50.80926400;5.16316200;2023-07-31T07:39:28;19.10;99.90
19363;DHT22;9817;50.80926400;5.16316200;2023-07-31T07:41:54;19.10;99.90
19363;DHT22;9817;50.80926400;5.16316200;2023-07-31T07:44:20;19.10;99.90
19363;DHT22;9817;50.80926400;5.16316200;2023-07-31T07:46:45;19.30;99.90
19363;DHT22;9817;50.80926400;5.16316200;2023-07-31T07:49:11;19.20;99.90
19363;DHT22;9817;50.80926400;5.16316200;2023-07-31T07:51:37;19.10;99.90
19363;DHT22;9817;50.80926400;5.16316200;2023-07-31T07:54:02;19.00;99.90
19363;DHT22;9817;50.80926400;5.16316200;2023-07-31T07:56:28;18.80;99.90
19363;DHT22;9817;50.80926400;5.16316200;2023-07-31T07:58:54;18.90;99.90
19363;DHT22;9817;50.80926400;5.16316200;2023-07-31T08:01:20;18.80;99.90
19363;DHT22;9817;50.80926400;5.16316200;2023-07-31T08:03:46;18.70;99.90
19363;DHT22;9817;50.80926400;5.16316200;2023-07-31T08:06:12;18.80;99.90
19363;DHT22;9817;50.80926400;5.16316200;2023-07-31T08:08:37;18.90;99.90
19363;DHT22;9817;50.80926400;5.16316200;2023-07-31T08:11:03;19.10;99.90
19363;DHT22;9817;50.80926400;5.16316200;2023-07-31T08:13:29;19.10;99.90
19363;DHT22;9817;50.80926400;5.16316200;2023-07-31T08:15:55;19.00;99.90
19363;DHT22;9817;50.80926400;5.16316200;2023-07-31T08:18:21;18.90;99.90
19363;DHT22;9817;50.80926400;5.16316200;2023-07-31T08:20:46;18.80;99.90
19363;DHT22;9817;50.80926400;5.16316200;2023-07-31T08:23:12;18.90;99.90
19363;DHT22;9817;50.80926400;5.16316200;2023-07-31T08:25:38;18.90;99.90
19363;DHT22;9817;50.80926400;5.16316200;2023-07-31T08:28:05;18.70;99.90
19363;DHT22;9817;50.80926400;5.16316200;2023-07-31T08:30:31;18.70;99.90
19363;DHT22;9817;50.80926400;5.16316200;2023-07-31T08:32:57;18.70;99.90
19363;DHT22;9817;50.80926400;5.16316200;2023-07-31T08:35:24;18.90;99.90
19363;DHT22;9817;50.80926400;5.16316200;2023-07-31T08:37:50;18.80;99.90
19363;DHT22;9817;50.80926400;5.16316200;2023-07-31T08:40:16;18.80;99.90
19363;DHT22;9817;50.80926400;5.16316200;2023-07-31T08:42:46;18.80;99.90
19363;DHT22;9817;50.80926400;5.16316200;2023-07-31T08:45:16;18.70;99.90
19363;DHT22;9817;50.80926400;5.16316200;2023-07-31T08:47:48;18.70;99.90
19363;DHT22;9817;50.80926400;5.16316200;2023-07-31T08:50:16;18.80;99.90
19363;DHT22;9817;50.80926400;5.16316200;2023-07-31T08:52:42;18.80;99.90
19363;DHT22;9817;50.80926400;5.16316200;2023-07-31T08:55:08;19.00;99.90
19363;DHT22;9817;50.80926400;5.16316200;2023-07-31T08:57:38;19.30;99.90
19363;DHT22;9817;50.80926400;5.16316200;2023-07-31T09:00:08;19.40;99.90
19363;DHT22;9817;50.80926400;5.16316200;2023-07-31T09:02:48;19.20;99.90
19363;DHT22;9817;50.80926400;5.16316200;2023-07-31T09:05:15;19.20;99.90
19363;DHT22;9817;50.80926400;5.16316200;2023-07-31T09:07:43;19.20;99.90
19363;DHT22;9817;50.80926400;5.16316200;2023-07-31T09:10:12;19.00;99.90
19363;DHT22;9817;50.80926400;5.16316200;2023-07-31T09:12:38;19.10;99.90
19363;DHT22;9817;50.80926400;5.16316200;2023-07-31T09:15:05;19.20;99.90
19363;DHT22;9817;50.80926400;5.16316200;2023-07-31T09:17:35;19.30;99.90
19363;DHT22;9817;50.80926400;5.16316200;2023-07-31T09:22:43;19.50;99.90
19363;DHT22;9817;50.80926400;5.16316200;2023-07-31T09:25:28;19.40;99.90
19363;DHT22;9817;50.80926400;5.16316200;2023-07-31T09:28:07;19.50;99.90
19363;DHT22;9817;50.80926400;5.16316200;2023-07-31T09:30:47;19.40;99.90
19363;DHT22;9817;50.80926400;5.16316200;2023-07-31T09:33:13;19.40;99.90
19363;DHT22;9817;50.80926400;5.16316200;2023-07-31T09:35:39;19.40;99.90
19363;DHT22;9817;50.80926400;5.16316200;2023-07-31T09:38:13;19.50;99.90
19363;DHT22;9817;50.80926400;5.16316200;2023-07-31T09:40:41;19.60;99.90
19363;DHT22;9817;50.80926400;5.16316200;2023-07-31T09:43:11;19.70;99.90
19363;DHT22;9817;50.80926400;5.16316200;2023-07-31T09:45:39;19.90;99.90
19363;DHT22;9817;50.80926400;5.16316200;2023-07-31T09:48:10;19.90;99.90
19363;DHT22;9817;50.80926400;5.16316200;2023-07-31T09:50:39;20.10;99.90
19363;DHT22;9817;50.80926400;5.16316200;2023-07-31T09:53:05;20.20;99.90
19363;DHT22;9817;50.80926400;5.16316200;2023-07-31T09:55:32;20.00;99.90
19363;DHT22;9817;50.80926400;5.16316200;2023-07-31T09:57:58;20.00;99.90
19363;DHT22;9817;50.80926400;5.16316200;2023-07-31T10:00:24;19.80;99.90
19363;DHT22;9817;50.80926400;5.16316200;2023-07-31T10:02:54;20.00;99.90
19363;DHT22;9817;50.80926400;5.16316200;2023-07-31T10:05:23;20.30;99.90
19363;DHT22;9817;50.80926400;5.16316200;2023-07-31T10:07:59;20.80;99.90
19363;DHT22;9817;50.80926400;5.16316200;2023-07-31T10:10:26;20.70;99.90
19363;DHT22;9817;50.80926400;5.16316200;2023-07-31T10:12:53;20.70;99.90
19363;DHT22;9817;50.80926400;5.16316200;2023-07-31T10:15:20;20.70;99.90
19363;DHT22;9817;50.80926400;5.16316200;2023-07-31T10:17:49;20.90;99.90
19363;DHT22;9817;50.80926400;5.16316200;2023-07-31T10:20:16;20.70;99.90
19363;DHT22;9817;50.80926400;5.16316200;2023-07-31T10:22:43;20.60;99.90
19363;DHT22;9817;50.80926400;5.16316200;2023-07-31T10:25:09;20.50;99.90
19363;DHT22;9817;50.80926400;5.16316200;2023-07-31T10:27:36;20.40;99.90
19363;DHT22;9817;50.80926400;5.16316200;2023-07-31T10:30:04;20.30;99.90
19363;DHT22;9817;50.80926400;5.16316200;2023-07-31T10:32:31;20.30;99.90
19363;DHT22;9817;50.80926400;5.16316200;2023-07-31T10:34:57;20.20;99.90
19363;DHT22;9817;50.80926400;5.16316200;2023-07-31T10:37:28;20.40;99.90
19363;DHT22;9817;50.80926400;5.16316200;2023-07-31T10:40:05;20.50;99.90
19363;DHT22;9817;50.80926400;5.16316200;2023-07-31T10:44:58;20.70;99.90
19363;DHT22;9817;50.80926400;5.16316200;2023-07-31T10:47:25;20.90;99.90
19363;DHT22;9817;50.80926400;5.16316200;2023-07-31T10:49:51;20.80;99.90
19363;DHT22;9817;50.80926400;5.16316200;2023-07-31T10:52:21;20.80;99.90
19363;DHT22;9817;50.80926400;5.16316200;2023-07-31T10:57:47;20.80;99.90
19363;DHT22;9817;50.80926400;5.16316200;2023-07-31T11:00:29;20.80;99.90
19363;DHT22;9817;50.80926400;5.16316200;2023-07-31T11:05:45;20.70;99.90
19363;DHT22;9817;50.80926400;5.16316200;2023-07-31T11:08:31;20.70;99.90
19363;DHT22;9817;50.80926400;5.16316200;2023-07-31T11:13:33;20.60;99.90
19363;DHT22;9817;50.80926400;5.16316200;2023-07-31T11:15:59;20.40;99.90
19363;DHT22;9817;50.80926400;5.16316200;2023-07-31T11:18:26;20.60;99.90
19363;DHT22;9817;50.80926400;5.16316200;2023-07-31T11:20:52;20.70;99.90
19363;DHT22;9817;50.80926400;5.16316200;2023-07-31T11:23:19;20.60;99.90
19363;DHT22;9817;50.80926400;5.16316200;2023-07-31T11:25:46;20.60;99.90
19363;DHT22;9817;50.80926400;5.16316200;2023-07-31T11:28:16;20.50;99.90
19363;DHT22;9817;50.80926400;5.16316200;2023-07-31T11:30:43;20.60;99.90
19363;DHT22;9817;50.80926400;5.16316200;2023-07-31T11:33:10;20.70;99.90
19363;DHT22;9817;50.80926400;5.16316200;2023-07-31T11:35:43;20.70;99.90
19363;DHT22;9817;50.80926400;5.16316200;2023-07-31T11:38:32;20.90;99.90
19363;DHT22;9817;50.80926400;5.16316200;2023-07-31T11:41:01;21.00;99.90
19363;DHT22;9817;50.80926400;5.16316200;2023-07-31T11:43:28;21.20;99.90
19363;DHT22;9817;50.80926400;5.16316200;2023-07-31T11:46:01;21.50;99.90
19363;DHT22;9817;50.80926400;5.16316200;2023-07-31T11:48:35;21.70;99.90
19363;DHT22;9817;50.80926400;5.16316200;2023-07-31T11:51:05;22.00;99.90
19363;DHT22;9817;50.80926400;5.16316200;2023-07-31T11:53:33;22.20;99.90
19363;DHT22;9817;50.80926400;5.16316200;2023-07-31T11:56:01;22.40;99.90
19363;DHT22;9817;50.80926400;5.16316200;2023-07-31T11:58:30;22.40;99.90
19363;DHT22;9817;50.80926400;5.16316200;2023-07-31T12:00:57;22.50;99.90
19363;DHT22;9817;50.80926400;5.16316200;2023-07-31T12:03:23;22.40;99.90
19363;DHT22;9817;50.80926400;5.16316200;2023-07-31T12:05:49;22.00;99.90
19363;DHT22;9817;50.80926400;5.16316200;2023-07-31T12:08:15;21.70;99.90
19363;DHT22;9817;50.80926400;5.16316200;2023-07-31T12:10:41;21.80;99.90
19363;DHT22;9817;50.80926400;5.16316200;2023-07-31T12:13:11;21.60;99.90
19363;DHT22;9817;50.80926400;5.16316200;2023-07-31T12:15:41;21.90;99.90
19363;DHT22;9817;50.80926400;5.16316200;2023-07-31T12:18:09;21.90;99.90
19363;DHT22;9817;50.80926400;5.16316200;2023-07-31T12:20:35;21.70;99.90
19363;DHT22;9817;50.80926400;5.16316200;2023-07-31T12:23:01;21.70;99.90
19363;DHT22;9817;50.80926400;5.16316200;2023-07-31T12:25:32;21.80;99.90
19363;DHT22;9817;50.80926400;5.16316200;2023-07-31T12:28:03;22.00;99.90
19363;DHT22;9817;50.80926400;5.16316200;2023-07-31T12:32:54;22.20;99.90
19363;DHT22;9817;50.80926400;5.16316200;2023-07-31T12:35:20;22.40;99.90
19363;DHT22;9817;50.80926400;5.16316200;2023-07-31T12:37:46;22.30;99.90
19363;DHT22;9817;50.80926400;5.16316200;2023-07-31T12:40:11;22.40;99.90
19363;DHT22;9817;50.80926400;5.16316200;2023-07-31T12:42:38;22.30;99.90
19363;DHT22;9817;50.80926400;5.16316200;2023-07-31T12:45:04;22.30;99.90
19363;DHT22;9817;50.80926400;5.16316200;2023-07-31T12:47:30;22.60;99.90
19363;DHT22;9817;50.80926400;5.16316200;2023-07-31T12:49:55;22.60;99.90
19363;DHT22;9817;50.80926400;5.16316200;2023-07-31T12:52:21;22.50;99.90
19363;DHT22;9817;50.80926400;5.16316200;2023-07-31T12:54:47;22.40;99.90
19363;DHT22;9817;50.80926400;5.16316200;2023-07-31T12:57:12;22.30;99.90
19363;DHT22;9817;50.80926400;5.16316200;2023-07-31T12:59:38;22.20;99.90
19363;DHT22;9817;50.80926400;5.16316200;2023-07-31T13:02:03;22.20;99.90
19363;DHT22;9817;50.80926400;5.16316200;2023-07-31T13:04:29;22.00;99.90
19363;DHT22;9817;50.80926400;5.16316200;2023-07-31T13:06:55;21.90;99.90
19363;DHT22;9817;50.80926400;5.16316200;2023-07-31T13:09:20;21.80;99.90
19363;DHT22;9817;50.80926400;5.16316200;2023-07-31T13:11:46;21.60;99.90
19363;DHT22;9817;50.80926400;5.16316200;2023-07-31T13:14:12;21.40;99.90
19363;DHT22;9817;50.80926400;5.16316200;2023-07-31T13:16:37;21.30;99.90
19363;DHT22;9817;50.80926400;5.16316200;2023-07-31T13:19:03;21.20;99.90
19363;DHT22;9817;50.80926400;5.16316200;2023-07-31T13:21:29;21.40;99.90
19363;DHT22;9817;50.80926400;5.16316200;2023-07-31T13:23:54;21.50;99.90
19363;DHT22;9817;50.80926400;5.16316200;2023-07-31T13:26:23;21.70;99.90
19363;DHT22;9817;50.80926400;5.16316200;2023-07-31T13:28:49;21.90;99.90
19363;DHT22;9817;50.80926400;5.16316200;2023-07-31T13:31:14;22.20;99.90
19363;DHT22;9817;50.80926400;5.16316200;2023-07-31T13:33:40;22.30;99.90
19363;DHT22;9817;50.80926400;5.16316200;2023-07-31T13:36:06;22.20;99.90
19363;DHT22;9817;50.80926400;5.16316200;2023-07-31T13:38:31;22.20;99.90
19363;DHT22;9817;50.80926400;5.16316200;2023-07-31T13:40:57;22.00;99.90
19363;DHT22;9817;50.80926400;5.16316200;2023-07-31T13:43:24;21.70;99.90
19363;DHT22;9817;50.80926400;5.16316200;2023-07-31T13:45:49;21.60;99.90
19363;DHT22;9817;50.80926400;5.16316200;2023-07-31T13:48:15;21.50;99.90
19363;DHT22;9817;50.80926400;5.16316200;2023-07-31T13:50:41;21.40;99.90
19363;DHT22;9817;50.80926400;5.16316200;2023-07-31T13:53:06;21.30;99.90